Time;durP1;ratioP1;P1;durP2;ratioP2;P2;SDS_P1;SDS_P2;PMS_P1;PMS_P2;Temp;Humidity;BMP_temperature;BMP_pressure;BME280_temperature;BME280_humidity;BME280_pressure;Samples;Min_cycle;Max_cycle;Signal;HPM_P1;HPM_P2
2022/06/15 00:01:12;;;;;;;5.18;3.05;;;12.70;99.90;;;;;;5031190;28;20045;-65
2022/06/15 00:03:38;;;;;;;5.57;3.22;;;12.70;99.90;;;;;;5032653;28;20044;-64
2022/06/15 00:06:09;;;;;;;6.63;3.35;;;12.70;99.90;;;;;;5051726;28;20052;-66
2022/06/15 00:08:36;;;;;;;6.55;3.30;;;12.70;99.90;;;;;;5051811;28;20055;-65
2022/06/15 00:11:11;;;;;;;5.72;3.40;;;12.60;99.90;;;;;;5051813;28;20073;-64
2022/06/15 00:13:37;;;;;;;6.70;3.72;;;12.60;99.90;;;;;;5052979;28;20120;-64
2022/06/15 00:16:04;;;;;;;7.75;3.50;;;12.60;99.90;;;;;;5035654;28;20134;-65
2022/06/15 00:18:31;;;;;;;6.28;3.72;;;12.60;99.90;;;;;;5053377;28;20559;-63
2022/06/15 00:20:57;;;;;;;8.48;3.78;;;12.60;99.90;;;;;;5053466;28;20102;-65
2022/06/15 00:23:25;;;;;;;8.18;3.85;;;12.50;99.90;;;;;;5052273;28;20041;-64
2022/06/15 00:25:52;;;;;;;10.88;4.10;;;12.50;99.90;;;;;;5052096;28;20116;-64
2022/06/15 00:28:18;;;;;;;6.18;3.50;;;12.50;99.90;;;;;;5052219;28;20424;-65
2022/06/15 00:30:46;;;;;;;5.68;3.83;;;12.50;99.90;;;;;;5051791;28;20040;-64
2022/06/15 00:33:12;;;;;;;6.63;3.80;;;12.50;99.90;;;;;;5053321;28;20048;-65
2022/06/15 00:35:38;;;;;;;7.95;3.83;;;12.50;99.90;;;;;;5051781;28;20069;-64
2022/06/15 00:38:04;;;;;;;8.98;4.20;;;12.50;99.90;;;;;;5053030;28;20041;-65
2022/06/15 00:40:30;;;;;;;7.53;3.97;;;12.50;99.90;;;;;;5053321;28;20392;-64
2022/06/15 00:42:56;;;;;;;7.05;4.03;;;12.50;99.90;;;;;;5053236;28;20488;-64
2022/06/15 00:45:21;;;;;;;6.22;3.80;;;12.50;99.90;;;;;;5051646;28;20055;-63
2022/06/15 00:47:47;;;;;;;8.00;4.30;;;12.40;99.90;;;;;;5052800;28;20053;-64
2022/06/15 00:50:18;;;;;;;6.88;4.35;;;12.40;99.90;;;;;;5051742;28;20041;-64
2022/06/15 00:52:51;;;;;;;7.93;4.28;;;12.40;99.90;;;;;;5052667;28;20028;-64
2022/06/15 00:55:21;;;;;;;6.20;4.07;;;12.40;99.90;;;;;;5051557;28;20033;-64
2022/06/15 00:57:47;;;;;;;6.75;4.20;;;12.40;99.90;;;;;;5051287;28;20464;-64
2022/06/15 01:00:13;;;;;;;5.68;3.97;;;12.30;99.90;;;;;;5051460;28;20136;-65
2022/06/15 01:02:41;;;;;;;6.55;4.15;;;12.30;99.90;;;;;;5034701;28;20131;-64
2022/06/15 01:05:09;;;;;;;7.45;4.47;;;12.30;99.90;;;;;;5052307;28;20041;-64
2022/06/15 01:08:05;;;;;;;7.53;4.50;;;12.20;99.90;;;;;;5051047;28;20049;-64
2022/06/15 01:10:46;;;;;;;6.88;4.10;;;12.20;99.90;;;;;;5051360;28;20124;-64
2022/06/15 01:13:37;;;;;;;8.85;4.60;;;12.20;99.90;;;;;;5052346;28;20041;-64
2022/06/15 01:16:09;;;;;;;5.35;4.00;;;12.10;99.90;;;;;;5051199;28;20029;-66
2022/06/15 01:19:08;;;;;;;6.37;4.07;;;12.10;99.90;;;;;;5052581;28;20036;-63
2022/06/15 01:22:09;;;;;;;8.15;4.72;;;12.10;99.90;;;;;;5052388;28;20029;-64
2022/06/15 01:25:12;;;;;;;6.00;4.45;;;12.10;99.90;;;;;;5032369;28;20053;-64
2022/06/15 01:27:54;;;;;;;;;;;12.10;99.90;;;;;;5051289;28;20041;-65
2022/06/15 01:30:25;;;;;;;6.60;4.03;;;12.00;99.90;;;;;;5050894;28;19987;-64
2022/06/15 01:33:28;;;;;;;7.45;4.20;;;12.00;99.90;;;;;;5049465;28;20048;-65
2022/06/15 01:36:00;;;;;;;;;;;12.00;99.90;;;;;;5050864;28;20179;-64
2022/06/15 01:38:32;;;;;;;7.15;4.28;;;11.90;99.90;;;;;;5052070;28;19923;-64
2022/06/15 01:41:17;;;;;;;8.90;4.15;;;11.90;99.90;;;;;;5050500;28;20040;-64
2022/06/15 01:44:08;;;;;;;6.13;4.00;;;11.90;99.90;;;;;;5050461;28;20051;-64
2022/06/15 01:46:37;;;;;;;7.43;4.25;;;11.90;99.90;;;;;;5050752;28;20068;-63
2022/06/15 01:49:04;;;;;;;5.97;4.60;;;11.80;99.90;;;;;;5049951;28;20041;-63
2022/06/15 01:51:35;;;;;;;7.63;4.53;;;11.80;99.90;;;;;;5050047;28;20070;-64
2022/06/15 01:54:08;;;;;;;7.18;4.10;;;11.80;99.90;;;;;;5051402;28;20092;-64
2022/06/15 01:56:48;;;;;;;6.18;4.03;;;11.80;99.90;;;;;;5051539;28;20506;-65
2022/06/15 01:59:41;;;;;;;4.93;4.00;;;11.80;99.90;;;;;;5050017;28;20040;-64
2022/06/15 02:02:31;;;;;;;6.47;4.10;;;11.80;99.90;;;;;;5049718;28;20068;-64
2022/06/15 02:05:23;;;;;;;5.22;4.13;;;11.80;99.90;;;;;;5051116;28;20043;-64
2022/06/15 02:07:59;;;;;;;6.93;3.85;;;11.80;99.90;;;;;;5047852;28;20555;-64
2022/06/15 02:10:40;;;;;;;5.22;4.00;;;11.80;99.90;;;;;;5051337;28;20045;-64
2022/06/15 02:13:09;;;;;;;6.93;4.13;;;11.80;99.90;;;;;;5051415;28;20499;-63
2022/06/15 02:15:38;;;;;;;6.72;3.90;;;11.80;99.90;;;;;;5051229;28;20037;-64
2022/06/15 02:18:09;;;;;;;7.88;3.97;;;11.80;99.90;;;;;;5049981;28;20040;-63
2022/06/15 02:20:39;;;;;;;5.93;4.10;;;11.80;99.90;;;;;;5051296;28;20122;-64
2022/06/15 02:23:08;;;;;;;6.07;4.18;;;11.80;99.90;;;;;;5049827;28;20048;-64
2022/06/15 02:25:40;;;;;;;7.20;4.22;;;11.80;99.90;;;;;;5049754;28;20052;-65
2022/06/15 02:28:06;;;;;;;;;;;11.70;99.90;;;;;;5050014;28;20507;-65
2022/06/15 02:30:32;;;;;;;7.82;3.72;;;11.70;99.90;;;;;;5051085;28;19923;-64
2022/06/15 02:33:13;;;;;;;7.05;4.05;;;11.70;99.90;;;;;;5051023;28;20036;-63
2022/06/15 02:35:40;;;;;;;7.45;3.85;;;11.60;99.90;;;;;;5049631;28;20416;-64
2022/06/15 02:38:05;;;;;;;7.43;4.03;;;11.60;99.90;;;;;;5051026;28;20037;-64
2022/06/15 02:40:31;;;;;;;7.53;4.13;;;11.60;99.90;;;;;;5050847;28;20039;-64
2022/06/15 02:43:00;;;;;;;6.05;3.88;;;11.50;99.90;;;;;;5049525;28;20048;-64
2022/06/15 02:45:30;;;;;;;4.88;3.70;;;11.60;99.90;;;;;;5049716;28;20049;-64
2022/06/15 02:47:57;;;;;;;8.85;4.13;;;11.50;99.90;;;;;;5049377;28;20045;-63
2022/06/15 02:50:27;;;;;;;7.88;4.05;;;11.50;99.90;;;;;;5049427;28;20098;-64
2022/06/15 02:53:04;;;;;;;4.90;4.00;;;11.50;99.90;;;;;;5049176;28;20033;-64
2022/06/15 02:55:31;;;;;;;6.20;3.80;;;11.40;99.90;;;;;;5050666;28;20108;-64
2022/06/15 02:58:12;;;;;;;6.28;4.18;;;11.40;99.90;;;;;;5050264;28;20099;-64
2022/06/15 03:00:39;;;;;;;6.80;3.92;;;11.40;99.90;;;;;;5049009;28;20450;-63
2022/06/15 03:03:06;;;;;;;7.18;3.75;;;11.30;99.90;;;;;;5050599;28;20032;-65
2022/06/15 03:05:32;;;;;;;8.18;4.15;;;11.30;99.90;;;;;;5049447;28;20044;-64
2022/06/15 03:07:58;;;;;;;6.57;3.90;;;11.30;99.90;;;;;;5048740;28;20091;-65
2022/06/15 03:10:23;;;;;;;7.90;4.72;;;11.30;99.90;;;;;;5048815;28;20072;-64
2022/06/15 03:12:49;;;;;;;5.75;4.20;;;11.30;99.90;;;;;;5050308;28;20586;-64
2022/06/15 03:15:15;;;;;;;6.75;4.38;;;11.30;99.90;;;;;;5050211;28;20047;-64
2022/06/15 03:17:41;;;;;;;5.07;4.00;;;11.20;99.90;;;;;;5049345;28;20037;-64
2022/06/15 03:20:09;;;;;;;8.38;4.40;;;11.30;99.90;;;;;;5048732;28;20067;-64
2022/06/15 03:22:35;;;;;;;7.25;4.68;;;11.30;99.90;;;;;;5050242;28;20479;-63
2022/06/15 03:25:02;;;;;;;7.70;4.00;;;11.30;99.90;;;;;;5045569;28;20047;-64
2022/06/15 03:27:27;;;;;;;4.90;3.78;;;11.30;99.90;;;;;;5031899;28;20053;-63
2022/06/15 03:29:53;;;;;;;8.90;3.85;;;11.30;99.90;;;;;;5049668;28;20051;-64
2022/06/15 03:32:19;;;;;;;5.13;3.90;;;11.30;99.90;;;;;;5048266;28;20037;-64
2022/06/15 03:34:45;;;;;;;7.40;4.00;;;11.30;99.90;;;;;;5049677;28;20041;-64
2022/06/15 03:37:11;;;;;;;8.60;4.25;;;11.40;99.90;;;;;;5049439;28;20045;-64
2022/06/15 03:39:37;;;;;;;7.25;4.15;;;11.30;99.90;;;;;;5049379;28;20033;-65
2022/06/15 03:42:17;;;;;;;5.82;4.18;;;11.40;99.90;;;;;;5047879;28;20044;-64
2022/06/15 03:44:44;;;;;;;6.40;4.03;;;11.40;99.90;;;;;;5049652;28;20458;-64
2022/06/15 03:47:17;;;;;;;7.22;4.13;;;11.40;99.90;;;;;;5049451;28;20035;-64
2022/06/15 03:49:43;;;;;;;6.57;4.45;;;11.40;99.90;;;;;;5048281;28;20476;-64
2022/06/15 03:52:11;;;;;;;7.47;3.92;;;11.50;99.90;;;;;;5048122;28;20123;-63
2022/06/15 03:54:37;;;;;;;6.30;4.10;;;11.50;99.90;;;;;;5049126;28;20048;-64
2022/06/15 03:57:04;;;;;;;8.05;4.10;;;11.60;99.90;;;;;;5049481;28;20052;-64
2022/06/15 03:59:30;;;;;;;6.40;4.35;;;11.60;99.90;;;;;;5049147;28;20032;-64
2022/06/15 04:01:56;;;;;;;5.00;3.97;;;11.70;99.90;;;;;;5049679;28;20107;-64
2022/06/15 04:04:22;;;;;;;9.82;4.75;;;11.70;99.90;;;;;;5049374;28;20040;-63
2022/06/15 04:06:49;;;;;;;7.05;4.65;;;11.80;99.90;;;;;;5049376;28;20036;-64
2022/06/15 04:09:21;;;;;;;6.93;4.22;;;11.80;99.90;;;;;;5049273;28;20049;-64
2022/06/15 04:12:01;;;;;;;7.80;4.35;;;11.80;99.90;;;;;;5049613;28;20395;-64
2022/06/15 04:14:31;;;;;;;6.40;4.50;;;11.90;99.90;;;;;;5047954;28;20041;-64
2022/06/15 04:16:57;;;;;;;6.70;4.22;;;11.90;99.90;;;;;;5048269;28;20045;-63
2022/06/15 04:19:29;;;;;;;5.63;4.00;;;12.00;99.90;;;;;;5049417;28;20045;-64
2022/06/15 04:21:55;;;;;;;7.65;4.75;;;12.10;99.90;;;;;;5048408;28;20045;-65
2022/06/15 04:24:23;;;;;;;6.72;4.10;;;12.10;99.90;;;;;;5049266;28;20045;-65
2022/06/15 04:26:49;;;;;;;6.32;3.80;;;12.20;99.90;;;;;;5049415;28;20399;-65
2022/06/15 04:29:17;;;;;;;5.03;4.05;;;12.20;99.90;;;;;;5047964;28;20164;-64
2022/06/15 04:31:42;;;;;;;6.07;4.10;;;12.30;99.90;;;;;;5047726;28;20072;-64
2022/06/15 04:34:10;;;;;;;10.43;4.35;;;12.30;99.90;;;;;;5048131;28;20037;-64
2022/06/15 04:36:37;;;;;;;8.23;4.45;;;12.40;99.90;;;;;;5049132;28;20049;-63
2022/06/15 04:39:04;;;;;;;8.52;4.75;;;12.40;99.90;;;;;;5049410;28;20044;-64
2022/06/15 04:41:30;;;;;;;7.15;4.38;;;12.40;99.90;;;;;;5047972;28;20492;-63
2022/06/15 04:43:56;;;;;;;8.98;4.47;;;12.40;99.90;;;;;;5048129;28;20110;-64
2022/06/15 04:46:21;;;;;;;5.57;4.50;;;12.50;99.90;;;;;;5048092;28;20048;-65
2022/06/15 04:48:48;;;;;;;7.30;5.25;;;12.60;99.90;;;;;;5048958;28;20041;-65
2022/06/15 04:51:23;;;;;;;7.28;4.55;;;12.60;99.90;;;;;;5052667;28;20036;-64
2022/06/15 04:53:52;;;;;;;7.65;4.70;;;12.80;99.90;;;;;;5051444;28;20115;-64
2022/06/15 04:56:18;;;;;;;7.72;4.47;;;12.80;99.90;;;;;;5052891;28;20063;-63
2022/06/15 04:58:44;;;;;;;6.95;4.40;;;12.90;99.90;;;;;;5052375;28;20036;-64
2022/06/15 05:01:10;;;;;;;7.50;4.47;;;13.00;99.90;;;;;;5035207;28;20053;-64
2022/06/15 05:03:37;;;;;;;9.07;5.10;;;13.10;99.90;;;;;;5052484;28;20037;-64
2022/06/15 05:06:13;;;;;;;5.90;4.55;;;13.20;99.90;;;;;;5051319;28;20040;-65
2022/06/15 05:08:39;;;;;;;9.48;4.80;;;13.30;99.90;;;;;;5051187;28;20053;-64
2022/06/15 05:11:05;;;;;;;10.73;4.85;;;13.40;99.90;;;;;;5052603;28;20446;-65
2022/06/15 05:13:30;;;;;;;7.13;4.68;;;13.40;99.90;;;;;;5052448;28;20456;-64
2022/06/15 05:15:56;;;;;;;6.35;4.30;;;13.60;99.90;;;;;;5047876;28;20074;-64
2022/06/15 05:18:22;;;;;;;7.80;4.55;;;13.70;99.90;;;;;;5052115;28;20048;-64
2022/06/15 05:20:47;;;;;;;7.20;4.63;;;13.70;99.90;;;;;;5051758;28;20075;-64
2022/06/15 05:23:17;;;;;;;7.18;4.82;;;13.90;99.90;;;;;;5050838;28;20049;-64
2022/06/15 05:25:43;;;;;;;7.40;4.50;;;14.00;99.90;;;;;;5052123;28;20033;-63
2022/06/15 05:28:09;;;;;;;6.97;4.72;;;14.10;99.90;;;;;;5050284;28;20044;-64
2022/06/15 05:30:36;;;;;;;8.63;4.60;;;14.20;99.90;;;;;;5052194;28;20040;-64
2022/06/15 05:33:02;;;;;;;7.38;4.95;;;14.30;99.90;;;;;;5050202;28;20048;-65
2022/06/15 05:35:28;;;;;;;7.00;4.35;;;14.50;99.90;;;;;;5051852;28;20060;-64
2022/06/15 05:37:54;;;;;;;10.50;5.28;;;14.50;99.90;;;;;;5051702;28;20045;-64
2022/06/15 05:40:20;;;;;;;9.85;4.80;;;14.70;99.90;;;;;;5051719;28;20044;-64
2022/06/15 05:42:45;;;;;;;7.15;4.68;;;14.80;99.90;;;;;;5052206;28;20555;-63
2022/06/15 05:45:11;;;;;;;8.27;4.75;;;14.90;99.90;;;;;;5049943;28;20041;-65
2022/06/15 05:47:37;;;;;;;8.90;4.90;;;15.00;99.90;;;;;;5051668;28;20126;-64
2022/06/15 05:50:04;;;;;;;7.53;5.00;;;15.20;99.90;;;;;;5051719;28;20065;-64
2022/06/15 05:52:29;;;;;;;8.13;4.65;;;15.20;99.90;;;;;;5051744;28;20033;-64
2022/06/15 05:54:58;;;;;;;8.90;4.53;;;15.40;99.90;;;;;;5050417;28;20400;-64
2022/06/15 05:57:25;;;;;;;10.30;4.60;;;15.50;99.90;;;;;;5051679;28;20033;-64
2022/06/15 05:59:52;;;;;;;11.45;4.55;;;15.60;99.90;;;;;;5051666;28;20403;-64
2022/06/15 06:02:19;;;;;;;10.27;4.50;;;15.70;99.90;;;;;;5049570;28;20045;-64
2022/06/15 06:04:45;;;;;;;7.53;4.47;;;15.80;99.90;;;;;;5051681;28;20120;-64
2022/06/15 06:07:11;;;;;;;8.57;4.50;;;16.00;99.90;;;;;;5049900;28;20136;-64
2022/06/15 06:09:38;;;;;;;10.20;4.65;;;16.00;99.90;;;;;;5051327;28;20080;-64
2022/06/15 06:12:04;;;;;;;8.60;4.88;;;16.10;99.90;;;;;;5051481;28;20037;-64
2022/06/15 06:14:30;;;;;;;9.20;4.40;;;16.20;99.90;;;;;;5051347;28;20035;-65
2022/06/15 06:16:56;;;;;;;8.15;4.55;;;16.30;99.90;;;;;;5049542;28;20033;-64
2022/06/15 06:19:21;;;;;;;7.75;4.30;;;16.40;99.90;;;;;;5049890;28;20044;-64
2022/06/15 06:21:47;;;;;;;6.40;4.50;;;16.50;99.90;;;;;;5049141;28;20036;-65
2022/06/15 06:24:13;;;;;;;7.55;4.22;;;16.70;99.90;;;;;;5048408;28;20049;-63
2022/06/15 06:26:39;;;;;;;6.68;4.07;;;16.80;99.90;;;;;;5050162;28;20116;-64
2022/06/15 06:29:06;;;;;;;8.95;4.28;;;17.00;99.90;;;;;;5050069;28;20068;-64
2022/06/15 06:31:32;;;;;;;5.80;4.38;;;17.10;99.90;;;;;;5049612;28;20132;-65
2022/06/15 06:33:58;;;;;;;9.05;4.20;;;17.20;99.90;;;;;;5049934;28;20129;-65
2022/06/15 06:36:45;;;;;;;4.60;3.50;;;17.30;99.90;;;;;;5049666;28;20057;-64
2022/06/15 06:39:25;;;;;;;7.60;3.78;;;17.40;99.90;;;;;;5049295;28;20696;-64
2022/06/15 06:41:51;;;;;;;7.05;4.32;;;17.40;99.90;;;;;;5031653;28;20111;-65
2022/06/15 06:44:17;;;;;;;6.35;3.88;;;17.50;99.90;;;;;;5030453;28;20033;-66
2022/06/15 06:46:45;;;;;;;12.98;4.78;;;17.60;99.90;;;;;;5048515;28;20094;-64
2022/06/15 06:49:12;;;;;;;9.95;4.32;;;17.80;99.90;;;;;;5047736;28;20475;-64
2022/06/15 06:51:39;;;;;;;10.48;4.38;;;17.80;99.90;;;;;;5047852;28;20040;-64
2022/06/15 06:54:07;;;;;;;6.93;3.80;;;17.90;99.90;;;;;;5049820;28;20124;-64
2022/06/15 06:56:36;;;;;;;8.38;3.80;;;18.00;99.90;;;;;;5049496;28;20041;-65
2022/06/15 06:59:06;;;;;;;8.00;4.32;;;18.20;99.90;;;;;;5050749;28;20372;-65
2022/06/15 07:01:34;;;;;;;5.43;3.58;;;18.30;99.90;;;;;;5046688;28;20080;-64
2022/06/15 07:03:59;;;;;;;7.88;3.97;;;18.40;99.90;;;;;;5048958;28;20053;-65
2022/06/15 07:06:25;;;;;;;7.38;3.80;;;18.50;99.90;;;;;;5045642;28;20102;-63
2022/06/15 07:08:51;;;;;;;6.20;3.25;;;18.60;99.90;;;;;;5048308;28;20497;-64
2022/06/15 07:11:17;;;;;;;9.90;3.55;;;18.60;99.90;;;;;;5048961;28;20110;-64
2022/06/15 07:13:46;;;;;;;7.78;3.83;;;18.70;99.90;;;;;;5029408;28;20044;-64
2022/06/15 07:16:15;;;;;;;8.20;3.05;;;18.70;99.90;;;;;;5045823;28;20045;-64
2022/06/15 07:18:43;;;;;;;6.40;3.30;;;18.90;99.90;;;;;;5048327;28;20399;-65
2022/06/15 07:21:14;;;;;;;6.95;3.15;;;18.90;99.90;;;;;;5046547;28;20045;-65
2022/06/15 07:23:43;;;;;;;6.93;3.67;;;19.00;99.90;;;;;;5046965;28;20032;-64
2022/06/15 07:26:14;;;;;;;6.05;3.15;;;19.20;99.90;;;;;;5046416;28;20036;-63
2022/06/15 07:28:40;;;;;;;6.22;2.95;;;19.30;99.90;;;;;;5049181;28;20729;-64
2022/06/15 07:31:08;;;;;;;9.02;3.83;;;19.50;99.90;;;;;;5048948;28;20033;-64
2022/06/15 07:33:35;;;;;;;7.05;2.90;;;19.60;99.90;;;;;;5048197;28;20041;-64
2022/06/15 07:36:01;;;;;;;6.88;2.78;;;19.70;99.90;;;;;;5046175;28;20132;-64
2022/06/15 07:38:27;;;;;;;6.93;2.58;;;19.90;99.90;;;;;;5047729;28;20442;-63
2022/06/15 07:40:53;;;;;;;7.40;2.65;;;20.00;99.90;;;;;;5048530;28;20029;-64
2022/06/15 07:43:20;;;;;;;7.50;2.75;;;20.10;99.90;;;;;;5047735;28;20391;-64
2022/06/15 07:45:46;;;;;;;5.97;3.03;;;20.10;99.90;;;;;;5046401;28;20032;-65
2022/06/15 07:50:56;;;;;;;6.80;2.75;;;20.40;99.90;;;;;;5047499;28;20503;-64
2022/06/15 07:53:22;;;;;;;5.13;2.50;;;20.50;99.90;;;;;;5047561;28;20052;-64
2022/06/15 07:55:48;;;;;;;6.40;2.63;;;20.70;99.90;;;;;;5047777;28;20108;-64
2022/06/15 07:58:15;;;;;;;7.95;2.70;;;20.80;99.90;;;;;;5046507;28;20192;-64
2022/06/15 08:00:43;;;;;;;4.63;1.95;;;20.80;99.90;;;;;;5046302;28;20047;-65
2022/06/15 08:03:10;;;;;;;8.80;2.35;;;20.90;99.90;;;;;;5047099;28;20095;-65
2022/06/15 08:05:40;;;;;;;7.45;2.47;;;21.00;99.90;;;;;;5046531;28;20039;-64
2022/06/15 08:08:09;;;;;;;4.45;1.80;;;21.10;99.90;;;;;;5048279;28;20522;-64
2022/06/15 08:10:36;;;;;;;4.57;2.00;;;21.20;99.90;;;;;;5047525;28;20037;-65
2022/06/15 08:13:04;;;;;;;9.15;2.10;;;21.30;99.90;;;;;;5048619;28;20033;-64
2022/06/15 08:15:30;;;;;;;5.55;1.98;;;21.40;99.90;;;;;;5048584;28;20488;-64
2022/06/15 08:18:07;;;;;;;4.95;2.05;;;21.50;99.90;;;;;;5048893;28;20033;-64
2022/06/15 08:20:37;;;;;;;8.43;2.28;;;21.50;99.90;;;;;;5047693;28;20083;-65
2022/06/15 08:23:13;;;;;;;5.53;1.88;;;21.30;99.90;;;;;;5047793;28;20450;-65
2022/06/15 08:25:43;;;;;;;6.32;2.30;;;21.30;99.90;;;;;;5050360;28;20041;-65
2022/06/15 08:28:10;;;;;;;4.32;1.73;;;21.10;99.90;;;;;;5050855;28;20044;-65
2022/06/15 08:30:37;;;;;;;3.92;1.42;;;20.90;99.90;;;;;;5049917;28;20063;-64
2022/06/15 08:33:07;;;;;;;3.88;1.50;;;21.10;99.90;;;;;;5051357;28;20123;-64
2022/06/15 08:35:36;;;;;;;3.63;1.10;;;21.10;99.90;;;;;;5034668;28;20052;-66
2022/06/15 08:38:02;;;;;;;3.80;1.20;;;21.20;99.90;;;;;;5051040;28;20047;-65
2022/06/15 08:40:36;;;;;;;3.95;1.20;;;21.30;98.80;;;;;;5052085;28;20075;-63
2022/06/15 08:43:26;;;;;;;3.83;1.30;;;21.50;98.50;;;;;;5051350;28;20495;-64
2022/06/15 08:45:57;;;;;;;5.25;1.58;;;21.40;98.00;;;;;;5049767;28;20484;-64
2022/06/15 08:48:56;;;;;;;3.75;1.98;;;21.50;98.10;;;;;;5050845;28;20043;-64
2022/06/15 08:51:33;;;;;;;5.40;1.42;;;21.70;98.30;;;;;;5050917;28;20032;-64
2022/06/15 08:54:23;;;;;;;4.63;1.40;;;21.90;97.20;;;;;;5049783;28;20387;-64
2022/06/15 08:56:54;;;;;;;4.55;1.20;;;22.20;97.50;;;;;;5047023;28;20472;-63
2022/06/15 08:59:43;;;;;;;4.13;1.52;;;22.50;96.80;;;;;;5050298;28;20053;-64
2022/06/15 09:02:15;;;;;;;3.22;1.20;;;22.60;96.50;;;;;;5032704;28;20103;-65
2022/06/15 09:05:06;;;;;;;3.50;1.50;;;22.70;97.00;;;;;;5050863;28;20102;-65
2022/06/15 09:07:48;;;;;;;3.65;1.40;;;23.00;95.70;;;;;;5052160;28;20107;-64
2022/06/15 09:10:37;;;;;;;4.22;1.00;;;23.10;95.80;;;;;;5051397;28;20136;-64
2022/06/15 09:13:34;;;;;;;3.17;1.13;;;22.70;95.90;;;;;;5050773;28;20037;-65
2022/06/15 09:16:27;;;;;;;3.85;1.40;;;22.40;95.30;;;;;;5051574;28;20139;-63
2022/06/15 09:19:08;;;;;;;4.43;1.33;;;22.30;95.90;;;;;;5049247;28;20381;-64
2022/06/15 09:21:43;;;;;;;3.33;1.30;;;21.90;96.20;;;;;;5050784;28;20048;-63
2022/06/15 09:24:49;;;;;;;4.25;1.30;;;21.70;96.20;;;;;;5049789;28;20044;-65
2022/06/15 09:27:21;;;;;;;4.10;1.38;;;22.10;97.10;;;;;;5028044;28;20570;-64
2022/06/15 09:29:55;;;;;;;3.65;1.75;;;22.50;97.10;;;;;;5010762;28;20464;-63
2022/06/15 09:32:24;;;;;;;4.63;1.23;;;22.90;95.70;;;;;;5011996;28;20045;-65
2022/06/15 09:35:16;;;;;;;4.15;1.50;;;23.20;95.90;;;;;;5011903;28;20056;-64
2022/06/15 09:37:46;;;;;;;3.00;1.42;;;23.50;95.90;;;;;;5027229;28;20492;-63
2022/06/15 09:40:12;;;;;;;5.00;1.67;;;23.50;94.20;;;;;;5012082;28;20404;-64
2022/06/15 09:42:54;;;;;;;5.03;1.30;;;23.50;94.00;;;;;;5028125;28;20052;-64
2022/06/15 09:45:45;;;;;;;4.13;1.20;;;23.60;94.80;;;;;;5011748;28;20096;-64
2022/06/15 09:48:33;;;;;;;5.60;1.17;;;23.80;94.80;;;;;;5027978;28;20176;-64
2022/06/15 09:51:09;;;;;;;3.83;1.60;;;24.10;94.20;;;;;;5010934;28;20050;-64
2022/06/15 09:53:56;;;;;;;1.58;1.00;;;24.40;94.60;;;;;;5012703;28;20041;-64
2022/06/15 09:56:23;;;;;;;3.47;1.02;;;24.60;94.40;;;;;;5028268;28;20048;-64
2022/06/15 09:59:10;;;;;;;6.35;1.58;;;24.70;93.30;;;;;;5010553;28;20076;-66
2022/06/15 10:01:42;;;;;;;3.83;1.30;;;24.80;92.90;;;;;;5028032;28;20400;-65
2022/06/15 10:04:34;;;;;;;3.08;1.08;;;24.70;92.50;;;;;;5041114;28;20063;-65
2022/06/15 10:07:27;;;;;;;5.13;1.48;;;24.80;91.90;;;;;;5048127;28;20092;-64
2022/06/15 10:10:00;;;;;;;4.75;1.20;;;24.80;92.20;;;;;;5049895;28;20470;-65
2022/06/15 10:12:58;;;;;;;2.85;1.38;;;24.70;92.20;;;;;;5049704;28;20081;-64
2022/06/15 10:15:29;;;;;;;2.53;1.10;;;24.40;92.00;;;;;;5050292;28;20415;-63
2022/06/15 10:18:00;;;;;;;3.70;1.45;;;24.50;92.50;;;;;;5050105;28;20048;-64
2022/06/15 10:20:38;;;;;;;3.80;1.30;;;24.40;92.40;;;;;;5050257;28;20036;-64
2022/06/15 10:23:16;;;;;;;2.40;1.30;;;24.20;91.80;;;;;;5049495;28;20384;-64
2022/06/15 10:25:53;;;;;;;5.70;1.27;;;24.30;92.90;;;;;;5049915;28;20037;-64
2022/06/15 10:28:48;;;;;;;3.80;1.38;;;24.60;92.90;;;;;;5048936;28;20041;-64
2022/06/15 10:31:16;;;;;;;4.50;1.30;;;24.80;92.30;;;;;;4994204;28;20057;-64
2022/06/15 10:33:46;;;;;;;5.65;1.50;;;25.00;91.90;;;;;;5027525;28;20041;-65
2022/06/15 10:36:22;;;;;;;4.38;1.13;;;25.10;92.50;;;;;;5027366;28;20041;-65
2022/06/15 10:39:03;;;;;;;6.25;1.33;;;25.10;92.50;;;;;;5027427;28;20041;-64
2022/06/15 10:41:47;;;;;;;1.67;1.05;;;25.20;92.10;;;;;;5028694;28;20139;-64
2022/06/15 10:44:23;;;;;;;5.80;2.42;;;25.40;91.50;;;;;;5027993;28;20512;-64
2022/06/15 10:46:54;;;;;;;3.22;1.40;;;25.50;90.30;;;;;;5028555;28;20119;-63
2022/06/15 10:49:21;;;;;;;5.88;1.27;;;25.60;90.10;;;;;;5025257;28;20432;-64
2022/06/15 10:51:47;;;;;;;4.07;1.20;;;25.70;90.20;;;;;;5027986;28;20056;-65
2022/06/15 10:54:32;;;;;;;4.35;1.17;;;25.60;88.60;;;;;;5027865;28;20067;-65
2022/06/15 11:03:11;;;;;;;2.50;1.30;;;25.60;88.80;;;;;;5027810;28;20049;-64
2022/06/15 11:05:38;;;;;;;3.33;1.10;;;25.60;87.30;;;;;;5027775;28;20136;-64
2022/06/15 11:08:12;;;;;;;2.28;1.27;;;25.70;88.10;;;;;;5042254;28;20063;-64
2022/06/15 11:10:46;;;;;;;3.85;1.25;;;25.70;89.90;;;;;;5049886;28;20083;-64
2022/06/15 11:13:29;;;;;;;5.00;1.50;;;25.80;89.20;;;;;;5047471;28;20037;-65
2022/06/15 11:18:46;;;;;;;2.88;1.10;;;25.30;86.80;;;;;;5047099;28;20126;-65
2022/06/15 11:21:24;;;;;;;5.07;1.38;;;24.70;87.30;;;;;;5048700;28;20372;-65
2022/06/15 11:24:04;;;;;;;4.50;1.10;;;24.30;88.60;;;;;;5048913;28;20079;-64
2022/06/15 11:26:55;;;;;;;3.33;1.30;;;24.40;90.10;;;;;;5048445;28;20606;-64
2022/06/15 11:29:30;;;;;;;4.10;1.45;;;24.50;89.70;;;;;;5047904;28;20789;-65
2022/06/15 11:32:02;;;;;;;1.98;1.17;;;24.50;89.20;;;;;;5048920;28;20071;-64
2022/06/15 11:34:34;;;;;;;2.63;1.20;;;24.60;89.20;;;;;;5048607;28;20108;-65
2022/06/15 11:37:06;;;;;;;;;;;24.60;87.40;;;;;;5048208;28;20495;-64
2022/06/15 11:39:57;;;;;;;4.38;1.60;;;24.50;89.30;;;;;;5047355;28;19916;-64
2022/06/15 11:42:24;;;;;;;4.53;1.30;;;24.60;90.00;;;;;;5048180;28;20037;-64
2022/06/15 11:44:51;;;;;;;3.25;1.20;;;24.60;88.50;;;;;;5048999;28;20045;-64
2022/06/15 11:47:19;;;;;;;3.00;1.58;;;24.70;87.10;;;;;;5049820;28;20094;-64
2022/06/15 11:50:04;;;;;;;2.58;1.50;;;24.70;87.80;;;;;;5047485;28;20044;-64
2022/06/15 11:52:54;;;;;;;4.22;1.13;;;24.80;87.10;;;;;;5045645;28;20399;-64
2022/06/15 11:55:25;;;;;;;3.45;1.27;;;24.70;87.70;;;;;;5046465;28;20084;-64
2022/06/15 11:58:09;;;;;;;2.97;1.40;;;24.70;87.70;;;;;;5048156;28;20128;-64
2022/06/15 12:00:47;;;;;;;4.78;1.40;;;24.60;86.90;;;;;;5047093;28;20130;-64
2022/06/15 12:03:40;;;;;;;3.78;1.48;;;24.60;87.50;;;;;;5048608;28;20127;-63
2022/06/15 12:06:27;;;;;;;4.30;1.70;;;24.60;87.10;;;;;;5046972;28;20119;-63
2022/06/15 12:09:00;;;;;;;2.33;1.20;;;24.50;87.30;;;;;;5047719;28;20049;-65
2022/06/15 12:14:49;;;;;;;2.92;1.30;;;23.90;87.70;;;;;;5048864;28;20093;-65
2022/06/15 12:18:03;;;;;;;2.42;1.27;;;23.80;90.10;;;;;;5047466;28;20073;-65
2022/06/15 12:20:40;;;;;;;3.63;1.42;;;23.90;90.00;;;;;;4988022;28;20038;-63
2022/06/15 12:23:20;;;;;;;3.17;1.20;;;23.80;89.30;;;;;;4973592;28;20076;-63
2022/06/15 12:26:02;;;;;;;2.60;0.93;;;23.40;88.50;;;;;;4991027;28;20486;-63
2022/06/15 12:28:38;;;;;;;;;;;23.40;90.20;;;;;;4990942;28;20140;-64
2022/06/15 12:31:31;;;;;;;2.15;1.02;;;23.50;90.40;;;;;;5000876;28;19918;-63
2022/06/15 12:34:09;;;;;;;3.42;1.30;;;23.60;90.30;;;;;;4987705;28;20085;-64
2022/06/15 12:36:44;;;;;;;4.18;1.35;;;23.60;90.30;;;;;;4997535;28;20038;-65
2022/06/15 12:39:15;;;;;;;3.28;1.23;;;23.60;90.30;;;;;;4999548;28;20054;-64
2022/06/15 12:44:55;;;;;;;4.47;1.30;;;23.60;91.00;;;;;;4973230;28;20148;-64
2022/06/15 12:47:24;;;;;;;4.22;1.25;;;23.70;91.30;;;;;;4985628;28;20065;-64
2022/06/15 12:50:08;;;;;;;3.15;1.15;;;23.80;90.80;;;;;;4987620;28;20050;-64
2022/06/15 12:52:57;;;;;;;2.38;1.40;;;23.80;91.50;;;;;;5047350;28;20037;-64
2022/06/15 12:55:26;;;;;;;4.82;1.27;;;23.90;90.90;;;;;;5048334;28;20083;-63
2022/06/15 12:58:30;;;;;;;2.53;1.30;;;23.90;90.60;;;;;;5047551;28;20060;-63
2022/06/15 13:01:17;;;;;;;2.80;1.20;;;23.70;90.60;;;;;;5047783;28;20208;-65
2022/06/15 13:04:04;;;;;;;2.92;1.35;;;23.30;90.30;;;;;;5049080;28;20040;-63
2022/06/15 13:06:36;;;;;;;4.50;1.40;;;23.00;90.00;;;;;;5047945;28;20048;-65
2022/06/15 13:09:22;;;;;;;2.90;1.35;;;23.00;90.00;;;;;;5047150;28;20052;-65
2022/06/15 13:12:05;;;;;;;3.10;1.40;;;23.00;90.50;;;;;;5048233;28;20045;-65
2022/06/15 13:14:38;;;;;;;2.50;1.17;;;23.10;90.20;;;;;;5052302;28;20041;-64
2022/06/15 13:17:16;;;;;;;4.50;1.35;;;23.10;90.60;;;;;;5051084;28;20041;-63
2022/06/15 13:19:45;;;;;;;3.83;1.40;;;23.20;90.50;;;;;;5052314;28;20037;-64
2022/06/15 13:22:22;;;;;;;4.63;1.38;;;23.30;90.70;;;;;;5051193;28;20072;-64
2022/06/15 13:24:56;;;;;;;3.42;1.30;;;23.40;90.90;;;;;;5049734;28;20052;-64
2022/06/15 13:27:34;;;;;;;3.97;1.58;;;23.30;90.40;;;;;;5048892;28;20400;-64
2022/06/15 13:30:31;;;;;;;2.90;1.17;;;23.40;90.20;;;;;;5051001;28;20037;-64
2022/06/15 13:32:59;;;;;;;2.00;1.30;;;23.30;91.20;;;;;;5049983;28;20047;-64
2022/06/15 13:35:36;;;;;;;3.63;1.00;;;23.30;90.20;;;;;;5049928;28;20400;-64